ADDS METAR Data INFO
IDs: Format: Raw Decoded Include TAF

Data at: 0111 UTC 24 Jun 2018

KHUF 240053Z 26005KT 10SM FEW080 23/18 A2981 RMK AO2 SLP092 T02280183
KHUF 232353Z 27009KT 10SM FEW049 SCT085 24/18 A2981 RMK AO2 SLP089 T02390178 10250 20233 53002
KHUF 232253Z 26006KT 10SM FEW055 OVC080 24/18 A2980 RMK AO2 SLP086 T02440183
KHUF 232153Z 23008KT 10SM SCT050 OVC070 24/19 A2981 RMK AO2 SLP088 T02390189
KHUF 232053Z 23008KT 10SM FEW031 FEW048 OVC070 24/18 A2980 RMK AO2 SLP087 T02390183 53003
KHUF 231953Z 25008KT 10SM FEW042 BKN049 OVC060 24/18 A2980 RMK AO2 SLP085 T02390183
KHUF 231853Z 23007KT 10SM SCT029 BKN043 OVC055 24/18 A2979 RMK AO2 SLP084 T02390183
KHUF 231753Z 25008KT 10SM BKN041 23/18 A2979 RMK AO2 SLP084 60000 T02330178 10239 20194 58002
KHUF 231653Z 23008KT 10SM FEW023 OVC042 22/18 A2980 RMK AO2 SLP089 T02220178
KHUF 231553Z 24005KT 10SM OVC038 22/17 A2980 RMK AO2 RAE1456 SLP087 P0000 T02170172
KHUF 231504Z 27006KT 10SM SCT017 OVC037 21/18 A2980 RMK AO2 RAE1456 P0000 T02060178
KHUF 231453Z 30003KT 10SM -RA BKN015 BKN020 OVC034 20/18 A2980 RMK AO2 RAB20 SLP088 P0000 60000 T02000178 50009
KHUF 231353Z 29006KT 10SM SCT013 BKN019 OVC039 20/18 A2980 RMK AO2 SLP089 T02000178
KHUF 231340Z 28005KT 10SM BKN014 BKN023 OVC037 20/18 A2980 RMK AO2 T02000178
KHUF 231253Z 25008KT 10SM FEW011 OVC041 19/18 A2980 RMK AO2 SLP087 T01940178
KHUF 231207Z 27005KT 9SM SCT009 OVC047 19/18 A2977 RMK AO2 T01940178
KHUF 231153Z 23006KT 8SM SCT010 BKN045 19/18 A2977 RMK AO2 SLP077 T01940183 10200 20189 53012
KHUF 231053Z 27004KT 7SM SCT011 BKN055 19/18 A2976 RMK AO2 SLP071 T01940178
KHUF 230953Z 28005KT 8SM SCT009 OVC065 19/18 A2975 RMK AO2 SLP070 T01940183
KHUF 230945Z 26005KT 9SM SCT009 BKN050 OVC065 19/18 A2975 RMK AO2 T01940183
KHUF 230940Z 27006KT 9SM BKN009 OVC060 19/18 A2974 RMK AO2 CIG 008V014 T01940183
KHUF 230911Z 28006KT 9SM FEW008 SCT012 OVC060 19/18 A2974 RMK AO2 T01940183
KHUF 230853Z 27006KT 10SM FEW010 BKN016 OVC060 19/18 A2974 RMK AO2 SLP065 T01940183 53007
KHUF 230753Z 28005KT 8SM FEW011 OVC019 19/19 A2973 RMK AO2 SLP064 T01940189
KHUF 230728Z 26006KT 7SM SCT007 BKN020 19/19 A2973 RMK AO2 T01940189
KHUF 230714Z 25004KT 8SM BKN008 BKN019 19/19 A2972 RMK AO2 T01940189
KHUF 230711Z 26005KT 9SM SCT008 19/19 A2972 RMK AO2 T01940189
KHUF 230653Z 30003KT 9SM BKN008 OVC014 20/19 A2971 RMK AO2 CIG 006V010 SLP056 T02000189
KHUF 230640Z 31004KT 9SM BKN008 OVC014 20/19 A2971 RMK AO2 CIG 006V011 T02000189
KHUF 230632Z 27005KT 9SM SCT008 BKN013 OVC029 20/19 A2971 RMK AO2 T02000189
KHUF 230623Z 27005KT 9SM SCT010 BKN013 OVC029 20/19 A2972 RMK AO2 T02000189
KHUF 230612Z 29005KT 9SM FEW008 SCT013 OVC029 20/19 A2971 RMK AO2 T02000189
KHUF 230553Z 29004KT 9SM SCT008 BKN014 OVC029 20/19 A2972 RMK AO2 SLP058 T02000189 10233 20194 50001
KHUF 230546Z 29005KT 10SM BKN007 OVC029 20/19 A2972 RMK AO2 T02000189
KHUF 230537Z 29004KT 10SM SCT007 OVC029 20/19 A2972 RMK AO2 T02000189
KHUF 230522Z 27004KT 10SM SCT011 OVC029 20/19 A2972 RMK AO2 T02000189
KHUF 230453Z 24006KT 10SM OVC011 20/19 A2972 RMK AO2 SLP059 T02000189 402610183
KHUF 230434Z 26004KT 10SM BKN011 BKN040 20/19 A2971 RMK AO2 T02000189
KHUF 230353Z 27003KT 10SM FEW060 19/18 A2971 RMK AO2 SLP057 T01940183
KHUF 230253Z 26005KT 10SM CLR 21/19 A2971 RMK AO2 SLP057 T02060189 53013
KHUF 230237Z 28005KT 10SM SCT013 SCT021 21/19 A2970 RMK AO2 T02060189
KHUF 230219Z 34003KT 10SM BKN013 OVC030 21/19 A2970 RMK AO2 T02110189
KHUF 230212Z 33003KT 10SM SCT013 OVC030 21/19 A2970 RMK AO2 T02110189
KHUF 230153Z 31003KT 10SM BKN029 OVC110 21/19 A2969 RMK AO2 SLP050 T02110189
KHUF 230121Z 31007KT 10SM BKN025 BKN034 BKN120 22/19 A2968 RMK AO2 T02170189
KHUF 230053Z 29003KT 10SM FEW031 FEW110 22/18 A2967 RMK AO2 SLP042 T02220183
KHUF 222353Z 00000KT 10SM CLR 24/18 A2967 RMK AO2 LTG DSNT W SLP043 60000 T02390183 10261 20222 53004
KHUF 222300Z 26004KT 10SM BKN120 23/18 A2966 RMK AO2 LTG DSNT SE-SW T02330178
KHUF 222253Z VRB03KT 10SM VCTS BKN120 23/18 A2966 RMK AO2 LTG DSNT SE-SW SLP040 T02330183
KHUF 222243Z 29006KT 10SM VCTS OVC120 23/19 A2967 RMK AO2 LTG DSNT SE-SW T02280189
KHUF 222153Z 33008KT 10SM FEW032 BKN110 23/19 A2967 RMK AO2 LTG DSNT S-W RAB18E32 TSB17E47 SLP042 P0000 T02280189
KHUF 222121Z 33004KT 10SM -TSRA SCT027 BKN032 OVC049 24/19 A2966 RMK AO2 LTG DSNT ALQDS RAB18 TSB17 P0000 T02390189
KHUF 222113Z 30006KT 10SM BKN027 BKN032 24/18 A2966 RMK AO2 LTG DSNT ALQDS T02390183
KHUF 222053Z 25004KT 10SM SCT034 SCT085 BKN120 24/18 A2966 RMK AO2 LTG DSNT W-NE SLP039 T02440183 56008
KHUF 221953Z VRB05KT 10SM FEW060 BKN110 26/18 A2966 RMK AO2 LTG DSNT W-N SLP039 T02560178
KHUF 221853Z 21009KT 10SM FEW027 SCT050 24/18 A2967 RMK AO2 SLP042 T02440178
KHUF 221753Z 20008KT 10SM SCT025 BKN039 OVC049 24/18 A2968 RMK AO2 LTG DSNT NW SLP047 T02390183 10239 20206 58008
KHUF 221653Z 18009KT 10SM FEW021 SCT120 23/18 A2970 RMK AO2 LTG DSNT NW SLP053 T02330183
KHUF 221553Z 17006KT 10SM FEW013 OVC110 22/18 A2971 RMK AO2 SLP057 T02220183
KHUF 221453Z 18005KT 10SM SCT060 BKN070 BKN120 22/19 A2971 RMK AO2 SLP055 T02170189 50002
KHUF 221353Z 17007KT 10SM SCT008 BKN055 OVC085 21/19 A2971 RMK AO2 SLP058 T02110194